Time;durP1;ratioP1;P1;durP2;ratioP2;P2;SDS_P1;SDS_P2;PMS_P1;PMS_P2;Temp;Humidity;BMP_temperature;BMP_pressure;BME280_temperature;BME280_humidity;BME280_pressure;Samples;Min_cycle;Max_cycle;Signal;HPM_P1;HPM_P2
2023/10/28 00:00:57;;;;;;;9.32;4.00;;;11.10;97.10;;;;;;5015275;28;20192;-74
2023/10/28 00:03:24;;;;;;;7.90;3.20;;;11.00;97.10;;;;;;5014082;28;20040;-77
2023/10/28 00:05:49;;;;;;;10.82;3.50;;;11.00;97.10;;;;;;5011493;28;20067;-77
2023/10/28 00:08:15;;;;;;;8.10;2.95;;;10.90;97.00;;;;;;5030824;28;20069;-76
2023/10/28 00:10:42;;;;;;;9.73;3.00;;;10.90;97.00;;;;;;5015716;28;20415;-76
2023/10/28 00:13:08;;;;;;;7.05;2.78;;;10.80;97.00;;;;;;5012647;28;20068;-75
2023/10/28 00:15:35;;;;;;;8.63;3.10;;;10.80;97.10;;;;;;5016973;28;20041;-73
2023/10/28 00:18:03;;;;;;;6.97;2.80;;;10.80;97.10;;;;;;5017005;28;20044;-77
2023/10/28 00:20:29;;;;;;;7.15;3.00;;;10.80;97.00;;;;;;5013049;28;20110;-75
2023/10/28 00:22:57;;;;;;;8.98;3.47;;;10.80;97.00;;;;;;5016542;28;20040;-75
2023/10/28 00:25:25;;;;;;;8.20;3.13;;;10.70;97.00;;;;;;5013106;28;20106;-76
2023/10/28 00:27:55;;;;;;;6.90;2.83;;;10.70;97.20;;;;;;5011066;28;20180;-73
2023/10/28 00:30:22;;;;;;;9.35;3.78;;;10.60;97.20;;;;;;5008014;28;20050;-74
2023/10/28 00:32:49;;;;;;;7.80;3.55;;;10.60;97.20;;;;;;5010754;28;20017;-75
2023/10/28 00:35:15;;;;;;;9.18;3.33;;;10.60;97.30;;;;;;5014927;28;20045;-78
2023/10/28 00:37:41;;;;;;;10.10;3.33;;;10.60;97.30;;;;;;5015092;28;20033;-73
2023/10/28 00:40:07;;;;;;;7.93;3.00;;;10.60;97.40;;;;;;5015028;28;20038;-76
2023/10/28 00:42:36;;;;;;;9.73;3.15;;;10.60;97.40;;;;;;5013654;28;20030;-76
2023/10/28 00:45:03;;;;;;;8.30;3.20;;;10.60;97.40;;;;;;5015679;28;20038;-74
2023/10/28 00:47:29;;;;;;;7.00;3.20;;;10.60;97.40;;;;;;5018988;28;20029;-76
2023/10/28 00:49:55;;;;;;;9.77;3.33;;;10.60;97.50;;;;;;5016822;28;20042;-74
2023/10/28 00:52:21;;;;;;;8.45;3.95;;;10.70;97.50;;;;;;5018509;28;20026;-75
2023/10/28 00:54:48;;;;;;;9.50;3.58;;;10.70;97.50;;;;;;5020089;28;20451;-76
2023/10/28 00:57:17;;;;;;;8.40;3.40;;;10.70;97.50;;;;;;5018491;28;20331;-75
2023/10/28 00:59:43;;;;;;;9.05;3.60;;;10.70;97.50;;;;;;5017689;28;20450;-74
2023/10/28 01:02:13;;;;;;;8.45;3.90;;;10.70;97.50;;;;;;5020772;28;20475;-77
2023/10/28 01:04:39;;;;;;;8.95;3.65;;;10.80;97.50;;;;;;5035641;28;20025;-75
2023/10/28 01:07:05;;;;;;;10.10;3.70;;;10.80;97.40;;;;;;5019318;28;20129;-77
2023/10/28 01:09:31;;;;;;;7.60;3.35;;;10.80;97.30;;;;;;5021953;28;20491;-75
2023/10/28 01:11:57;;;;;;;10.40;3.53;;;10.80;97.30;;;;;;5022330;28;20049;-78
2023/10/28 01:14:22;;;;;;;11.10;3.65;;;10.90;97.30;;;;;;5016086;28;20121;-75
2023/10/28 01:16:51;;;;;;;9.57;3.75;;;10.90;97.30;;;;;;5018189;28;20033;-75
2023/10/28 01:19:17;;;;;;;9.80;4.00;;;10.90;97.30;;;;;;5019465;28;20036;-75
2023/10/28 01:21:42;;;;;;;11.82;4.40;;;10.90;97.30;;;;;;5018041;28;20033;-74
2023/10/28 01:24:08;;;;;;;8.70;3.88;;;10.90;97.20;;;;;;5021085;28;20116;-74
2023/10/28 01:26:34;;;;;;;10.05;4.20;;;10.80;97.20;;;;;;5018041;28;20073;-75
2023/10/28 01:29:00;;;;;;;11.80;4.65;;;10.80;97.30;;;;;;5019961;28;20112;-76
2023/10/28 01:31:27;;;;;;;9.27;4.43;;;10.80;97.30;;;;;;5020061;28;20471;-76
2023/10/28 01:33:52;;;;;;;11.25;4.90;;;10.80;97.30;;;;;;5012608;28;20060;-74
2023/10/28 01:36:18;;;;;;;12.93;4.38;;;10.80;97.40;;;;;;5015142;28;20034;-77
2023/10/28 01:38:44;;;;;;;9.98;4.82;;;10.80;97.40;;;;;;5015292;28;20198;-74
2023/10/28 01:41:13;;;;;;;11.68;4.38;;;10.80;97.40;;;;;;5017411;28;20473;-77
2023/10/28 01:43:44;;;;;;;11.45;5.10;;;10.90;97.50;;;;;;4996683;28;20041;-74
2023/10/28 01:46:10;;;;;;;13.80;5.75;;;10.90;97.50;;;;;;5009643;28;20034;-75
2023/10/28 01:48:36;;;;;;;11.35;5.88;;;10.90;97.50;;;;;;5017932;28;20038;-75
2023/10/28 01:51:02;;;;;;;11.20;5.00;;;10.90;97.50;;;;;;5004567;28;20065;-75
2023/10/28 01:53:27;;;;;;;10.93;5.32;;;11.00;97.40;;;;;;5019167;28;20535;-76
2023/10/28 01:55:53;;;;;;;13.57;6.07;;;11.00;97.50;;;;;;5003994;28;20113;-76
2023/10/28 01:58:19;;;;;;;14.50;6.07;;;11.00;97.40;;;;;;5016790;28;20087;-74
2023/10/28 02:00:45;;;;;;;13.02;6.18;;;11.00;97.50;;;;;;5022994;28;20172;-74
2023/10/28 02:03:11;;;;;;;12.93;6.32;;;11.00;97.50;;;;;;5014344;28;20049;-76
2023/10/28 02:05:38;;;;;;;13.23;5.80;;;11.10;97.40;;;;;;5015402;28;20493;-73
2023/10/28 02:08:04;;;;;;;17.48;6.43;;;11.10;97.40;;;;;;4998737;28;20065;-76
2023/10/28 02:10:30;;;;;;;12.48;5.82;;;11.10;97.40;;;;;;4995445;28;20042;-77
2023/10/28 02:12:55;;;;;;;12.95;5.82;;;11.10;97.40;;;;;;4996100;28;20042;-77
2023/10/28 02:15:21;;;;;;;11.18;5.50;;;11.10;97.30;;;;;;5020045;28;20050;-77
2023/10/28 02:17:48;;;;;;;13.98;5.70;;;11.10;97.30;;;;;;5007385;28;20452;-77
2023/10/28 02:20:13;;;;;;;14.75;6.65;;;11.10;97.30;;;;;;5010857;28;20065;-76
2023/10/28 02:22:40;;;;;;;14.07;6.63;;;11.10;97.30;;;;;;5006338;28;20065;-77
2023/10/28 02:25:08;;;;;;;14.65;5.45;;;11.10;97.30;;;;;;5018632;28;20033;-78
2023/10/28 02:27:34;;;;;;;14.85;5.18;;;11.10;97.30;;;;;;5008575;28;20410;-73
2023/10/28 02:29:59;;;;;;;14.85;5.75;;;11.10;97.20;;;;;;5002928;28;20048;-76
2023/10/28 02:32:25;;;;;;;14.90;5.47;;;11.10;97.30;;;;;;5008967;28;20038;-76
2023/10/28 02:34:51;;;;;;;13.52;5.82;;;11.10;97.30;;;;;;4997922;28;20565;-76
2023/10/28 02:37:17;;;;;;;13.52;5.15;;;11.10;97.40;;;;;;4998464;28;20038;-75
2023/10/28 02:39:42;;;;;;;14.70;6.20;;;11.10;97.30;;;;;;4999050;28;20376;-76
2023/10/28 02:42:08;;;;;;;15.18;5.70;;;11.10;97.30;;;;;;4996783;28;20046;-78
2023/10/28 02:44:34;;;;;;;16.98;5.45;;;11.10;97.40;;;;;;5001599;28;20049;-76
2023/10/28 02:47:00;;;;;;;16.02;6.20;;;11.10;97.50;;;;;;5016938;28;20068;-77
2023/10/28 02:49:27;;;;;;;16.45;5.63;;;11.10;97.40;;;;;;5019522;28;20487;-77
2023/10/28 02:51:53;;;;;;;14.68;6.50;;;11.20;97.40;;;;;;5018092;28;20062;-75
2023/10/28 02:54:18;;;;;;;14.98;6.97;;;11.20;97.50;;;;;;5015836;28;20021;-75
2023/10/28 02:56:45;;;;;;;14.82;6.57;;;11.20;97.40;;;;;;5010254;28;20030;-75
2023/10/28 02:59:11;;;;;;;14.55;5.55;;;11.30;97.40;;;;;;4999992;28;20112;-75
2023/10/28 03:01:39;;;;;;;15.40;6.50;;;11.30;97.40;;;;;;4999549;28;20108;-76
2023/10/28 03:04:05;;;;;;;16.42;6.78;;;11.30;97.30;;;;;;4995113;28;20140;-78
2023/10/28 03:06:32;;;;;;;15.82;6.20;;;11.30;97.30;;;;;;4994785;28;20126;-76
2023/10/28 03:08:58;;;;;;;14.35;6.63;;;11.40;97.20;;;;;;4993137;28;20077;-77
2023/10/28 03:11:24;;;;;;;15.25;6.53;;;11.40;97.20;;;;;;5023958;28;20072;-77
2023/10/28 03:13:49;;;;;;;12.10;6.65;;;11.40;97.10;;;;;;4998273;28;20475;-76
2023/10/28 03:16:15;;;;;;;15.15;6.28;;;11.40;97.10;;;;;;4992881;28;20476;-78
2023/10/28 03:18:40;;;;;;;18.90;6.90;;;11.40;97.10;;;;;;4995040;28;20361;-76
2023/10/28 03:21:06;;;;;;;20.33;6.38;;;11.50;97.10;;;;;;4996685;28;20514;-77
2023/10/28 03:23:32;;;;;;;17.33;6.55;;;11.40;97.10;;;;;;5002909;28;20037;-78
2023/10/28 03:25:58;;;;;;;14.77;5.90;;;11.50;97.10;;;;;;4993097;28;20062;-74
2023/10/28 03:28:23;;;;;;;16.50;6.22;;;11.50;97.00;;;;;;4995144;28;20547;-76
2023/10/28 03:30:49;;;;;;;17.90;6.00;;;11.50;97.00;;;;;;4989904;28;20099;-75
2023/10/28 03:33:15;;;;;;;13.75;5.93;;;11.60;97.00;;;;;;4992653;28;20040;-76
2023/10/28 03:35:41;;;;;;;14.18;6.10;;;11.60;97.00;;;;;;4993871;28;20440;-77
2023/10/28 03:38:07;;;;;;;15.73;5.88;;;11.60;96.90;;;;;;4993034;28;20138;-75
2023/10/28 03:40:32;;;;;;;15.60;6.55;;;11.60;96.90;;;;;;4996852;28;20494;-77
2023/10/28 03:42:58;;;;;;;15.70;6.13;;;11.60;96.80;;;;;;4990903;28;20076;-74
2023/10/28 03:45:24;;;;;;;16.23;5.97;;;11.60;96.80;;;;;;4993292;28;20802;-75
2023/10/28 03:47:49;;;;;;;17.05;5.60;;;11.60;96.80;;;;;;4996992;28;20092;-76
2023/10/28 03:50:15;;;;;;;13.70;5.30;;;11.60;96.80;;;;;;4999218;28;20636;-75
2023/10/28 03:52:40;;;;;;;15.25;5.32;;;11.60;96.80;;;;;;4988929;28;20042;-77
2023/10/28 03:55:07;;;;;;;14.48;5.43;;;11.60;96.70;;;;;;4995283;28;20049;-77
2023/10/28 03:57:33;;;;;;;19.20;6.05;;;11.60;96.70;;;;;;4999092;28;20032;-75
2023/10/28 03:59:58;;;;;;;16.88;5.78;;;11.70;96.70;;;;;;4996073;28;20362;-75
2023/10/28 04:02:25;;;;;;;13.65;5.10;;;11.70;96.60;;;;;;4993137;28;20618;-76
2023/10/28 04:04:52;;;;;;;13.55;5.18;;;11.70;96.70;;;;;;4997247;28;20418;-75
2023/10/28 04:07:17;;;;;;;18.83;5.65;;;11.70;96.70;;;;;;4996863;28;20041;-75
2023/10/28 04:09:43;;;;;;;13.43;6.05;;;11.70;96.80;;;;;;4997290;28;20445;-75
2023/10/28 04:12:08;;;;;;;12.75;4.65;;;11.70;96.70;;;;;;4998814;28;20349;-75
2023/10/28 04:14:35;;;;;;;16.35;5.35;;;11.70;96.80;;;;;;4997891;28;20026;-75
2023/10/28 04:17:01;;;;;;;13.10;4.20;;;11.70;96.70;;;;;;4993778;28;20052;-75
2023/10/28 04:19:27;;;;;;;16.55;5.70;;;11.70;96.70;;;;;;4993378;28;20068;-79
2023/10/28 04:21:54;;;;;;;14.48;5.22;;;11.80;96.70;;;;;;5000514;28;20065;-76
2023/10/28 04:24:19;;;;;;;18.58;5.28;;;11.80;96.70;;;;;;4998219;28;20085;-77
2023/10/28 04:26:45;;;;;;;16.67;5.55;;;11.80;96.60;;;;;;5012043;28;20550;-78
2023/10/28 04:29:11;;;;;;;15.73;4.43;;;11.80;96.60;;;;;;4995933;28;20278;-76
2023/10/28 04:31:37;;;;;;;11.88;3.97;;;11.80;96.60;;;;;;4999224;28;20519;-75
2023/10/28 04:34:03;;;;;;;14.80;4.80;;;11.80;96.60;;;;;;5002019;28;20044;-77
2023/10/28 04:36:29;;;;;;;11.50;3.85;;;11.80;96.50;;;;;;4999797;28;20325;-75
2023/10/28 04:38:54;;;;;;;14.07;4.50;;;11.80;96.50;;;;;;4993856;28;20392;-76
2023/10/28 04:41:20;;;;;;;17.17;5.22;;;11.80;96.60;;;;;;5000124;28;20030;-74
2023/10/28 04:43:46;;;;;;;13.05;4.30;;;11.80;96.50;;;;;;5017525;28;20025;-76
2023/10/28 04:46:11;;;;;;;11.65;4.45;;;11.80;96.50;;;;;;5003778;28;20026;-77
2023/10/28 04:48:38;;;;;;;14.65;4.53;;;11.80;96.50;;;;;;5037723;28;20064;-77
2023/10/28 04:51:05;;;;;;;13.70;4.25;;;11.80;96.50;;;;;;5006224;28;20478;-75
2023/10/28 04:53:31;;;;;;;12.77;4.05;;;11.80;96.50;;;;;;4991961;28;20044;-76
2023/10/28 04:55:57;;;;;;;12.25;3.80;;;11.80;96.60;;;;;;4996474;28;20064;-75
2023/10/28 04:58:24;;;;;;;16.40;4.40;;;11.80;96.50;;;;;;4993947;28;20038;-75
2023/10/28 05:00:50;;;;;;;15.25;3.70;;;11.80;96.50;;;;;;5017055;28;20117;-76
2023/10/28 05:03:15;;;;;;;15.20;4.25;;;11.80;96.50;;;;;;4996977;28;20559;-75
2023/10/28 05:05:41;;;;;;;13.32;3.67;;;11.80;96.40;;;;;;5002360;28;20578;-78
2023/10/28 05:08:07;;;;;;;14.75;4.05;;;11.70;96.30;;;;;;5000742;28;20549;-75
2023/10/28 05:10:33;;;;;;;16.65;4.15;;;11.70;96.40;;;;;;5001580;28;20038;-74
2023/10/28 05:12:59;;;;;;;16.50;4.93;;;11.70;96.50;;;;;;4998897;28;20413;-76
2023/10/28 05:15:25;;;;;;;14.20;4.20;;;11.70;96.50;;;;;;4998989;28;20042;-75
2023/10/28 05:17:50;;;;;;;19.33;3.95;;;11.70;96.50;;;;;;4999807;28;20033;-75
2023/10/28 05:20:16;;;;;;;17.40;4.10;;;11.70;96.40;;;;;;4999178;28;20239;-76
2023/10/28 05:22:42;;;;;;;11.43;3.40;;;11.60;96.40;;;;;;4999971;28;20034;-73
2023/10/28 05:25:08;;;;;;;14.48;3.72;;;11.70;96.50;;;;;;4999278;28;20041;-77
2023/10/28 05:27:35;;;;;;;11.80;4.10;;;11.70;96.50;;;;;;4998258;28;20034;-74
2023/10/28 05:30:01;;;;;;;15.73;4.13;;;11.70;96.50;;;;;;4997780;28;20099;-75
2023/10/28 05:32:26;;;;;;;12.02;4.18;;;11.70;96.50;;;;;;4997355;28;20497;-76
2023/10/28 05:34:52;;;;;;;15.32;3.75;;;11.70;96.40;;;;;;4997672;28;20130;-75
2023/10/28 05:37:18;;;;;;;15.70;3.85;;;11.70;96.50;;;;;;4998191;28;20458;-75
2023/10/28 05:39:44;;;;;;;15.55;3.72;;;11.70;96.50;;;;;;4999653;28;20200;-77
2023/10/28 05:42:14;;;;;;;15.05;3.95;;;11.70;96.50;;;;;;4995176;28;20041;-77
2023/10/28 05:44:40;;;;;;;11.98;3.42;;;11.70;96.60;;;;;;5002324;28;20038;-76
2023/10/28 05:47:07;;;;;;;15.60;4.00;;;11.70;96.60;;;;;;4992607;28;20038;-75
2023/10/28 05:49:33;;;;;;;15.85;3.83;;;11.70;96.60;;;;;;4997943;28;20168;-75
2023/10/28 05:51:59;;;;;;;18.45;3.80;;;11.70;96.60;;;;;;5000435;28;20057;-76
2023/10/28 05:54:25;;;;;;;13.02;3.95;;;11.80;96.60;;;;;;5001963;28;20041;-75
2023/10/28 05:56:50;;;;;;;12.93;3.80;;;11.80;96.60;;;;;;4998223;28;20041;-76
2023/10/28 05:59:16;;;;;;;16.95;3.90;;;11.80;96.60;;;;;;5000980;28;20030;-76
2023/10/28 06:01:42;;;;;;;11.20;3.22;;;11.80;96.50;;;;;;4996092;28;20119;-75
2023/10/28 06:04:09;;;;;;;13.07;3.60;;;11.90;96.50;;;;;;4999525;28;20061;-75
2023/10/28 06:06:35;;;;;;;15.05;3.80;;;11.80;96.40;;;;;;4998971;28;20041;-76
2023/10/28 06:09:01;;;;;;;16.65;4.55;;;11.90;96.40;;;;;;4999658;28;20034;-74
2023/10/28 06:11:27;;;;;;;14.85;4.10;;;11.90;96.30;;;;;;4995106;28;20050;-74
2023/10/28 06:13:53;;;;;;;13.95;3.40;;;11.90;96.30;;;;;;4994416;28;20427;-74
2023/10/28 06:16:19;;;;;;;12.32;3.45;;;11.90;96.40;;;;;;5027384;28;20055;-74
2023/10/28 06:18:46;;;;;;;11.32;3.28;;;11.90;96.30;;;;;;5018522;28;20498;-75
2023/10/28 06:21:14;;;;;;;12.70;4.10;;;12.00;96.20;;;;;;5002543;28;20535;-74
2023/10/28 06:23:40;;;;;;;11.95;3.17;;;12.00;96.20;;;;;;5012181;28;20028;-75
2023/10/28 06:26:07;;;;;;;12.07;3.97;;;12.00;96.00;;;;;;5013300;28;20761;-77
2023/10/28 06:28:33;;;;;;;10.65;2.88;;;12.00;96.00;;;;;;5014183;28;20026;-74
2023/10/28 06:31:00;;;;;;;14.57;3.20;;;12.00;95.80;;;;;;5017774;28;20030;-74
2023/10/28 06:33:26;;;;;;;12.30;2.72;;;12.10;95.70;;;;;;5017236;28;20342;-75
2023/10/28 06:35:51;;;;;;;12.57;3.20;;;12.10;95.60;;;;;;5019313;28;20091;-77
2023/10/28 06:38:20;;;;;;;13.95;3.78;;;12.10;95.30;;;;;;5018322;28;20203;-80
2023/10/28 06:40:48;;;;;;;11.13;3.08;;;12.10;95.10;;;;;;5018848;28;20273;-85
2023/10/28 06:43:15;;;;;;;12.70;3.20;;;12.10;95.10;;;;;;5017522;28;20246;-83
2023/10/28 06:45:41;;;;;;;14.63;3.08;;;12.10;94.90;;;;;;5022389;28;20026;-85
2023/10/28 06:48:07;;;;;;;12.25;3.30;;;12.10;94.90;;;;;;5015747;28;20037;-83
2023/10/28 06:50:33;;;;;;;15.93;3.05;;;12.10;94.90;;;;;;5019997;28;20595;-85
2023/10/28 06:53:02;;;;;;;12.30;2.88;;;12.10;94.90;;;;;;5021045;28;20482;-82
2023/10/28 06:55:27;;;;;;;12.82;3.35;;;12.20;95.00;;;;;;5033879;28;20022;-86
2023/10/28 06:57:54;;;;;;;10.40;2.67;;;12.20;94.90;;;;;;5016519;28;20382;-84
2023/10/28 07:00:23;;;;;;;12.13;2.70;;;12.20;94.80;;;;;;5014270;28;20037;-84
2023/10/28 07:02:49;;;;;;;7.18;2.45;;;12.20;94.70;;;;;;5011975;28;20022;-84
2023/10/28 07:05:15;;;;;;;7.85;2.65;;;12.20;94.50;;;;;;5020469;28;20649;-85
2023/10/28 07:07:41;;;;;;;12.57;3.00;;;12.30;94.40;;;;;;5011799;28;20032;-84
2023/10/28 07:10:07;;;;;;;9.02;2.42;;;12.30;94.30;;;;;;5013191;28;20029;-83
2023/10/28 07:12:33;;;;;;;11.75;3.15;;;12.30;94.20;;;;;;5013071;28;20037;-83
2023/10/28 07:14:59;;;;;;;11.95;3.47;;;12.40;94.10;;;;;;5016157;28;20033;-81
2023/10/28 07:17:26;;;;;;;11.82;2.65;;;12.40;93.90;;;;;;5013929;28;20385;-83
2023/10/28 07:19:52;;;;;;;10.50;2.70;;;12.40;93.90;;;;;;5018848;28;20049;-86
2023/10/28 07:22:21;;;;;;;13.65;3.10;;;12.40;93.80;;;;;;5014809;28;20030;-76
2023/10/28 07:24:47;;;;;;;14.18;3.55;;;12.40;93.70;;;;;;5019534;28;20186;-77
2023/10/28 07:27:12;;;;;;;8.68;2.05;;;12.40;93.60;;;;;;5015787;28;20434;-76
2023/10/28 07:29:38;;;;;;;10.45;2.33;;;12.40;93.50;;;;;;5018057;28;20022;-76
2023/10/28 07:32:05;;;;;;;8.75;2.58;;;12.50;93.50;;;;;;5011620;28;20066;-76
2023/10/28 07:34:32;;;;;;;9.25;2.70;;;12.40;93.40;;;;;;5019444;28;20371;-78
2023/10/28 07:37:04;;;;;;;10.95;2.72;;;12.50;93.30;;;;;;5013113;28;20044;-76
2023/10/28 07:39:31;;;;;;;7.95;2.03;;;12.60;93.00;;;;;;5015876;28;20030;-76
2023/10/28 07:41:57;;;;;;;8.52;2.33;;;12.60;93.00;;;;;;5013275;28;20034;-77
2023/10/28 07:44:23;;;;;;;9.93;2.72;;;12.60;92.90;;;;;;5015428;28;20037;-76
2023/10/28 07:46:49;;;;;;;8.85;2.42;;;12.60;92.60;;;;;;5016231;28;20038;-75
2023/10/28 07:49:15;;;;;;;9.55;2.33;;;12.70;92.50;;;;;;5013700;28;20129;-75
2023/10/28 07:51:41;;;;;;;9.15;2.20;;;12.70;92.30;;;;;;5013573;28;20046;-75
2023/10/28 07:54:07;;;;;;;7.70;2.20;;;12.80;92.00;;;;;;5020034;28;20037;-75
2023/10/28 07:56:34;;;;;;;9.90;2.20;;;12.80;91.70;;;;;;5022260;28;20182;-75
2023/10/28 07:59:00;;;;;;;10.90;2.58;;;13.00;91.40;;;;;;5013857;28;20029;-75
2023/10/28 08:01:29;;;;;;;9.02;2.10;;;13.00;91.20;;;;;;5021958;28;20042;-74
2023/10/28 08:03:55;;;;;;;8.20;2.10;;;13.10;90.80;;;;;;5018499;28;20026;-75
2023/10/28 08:06:21;;;;;;;7.38;2.58;;;13.10;90.70;;;;;;5018544;28;20175;-75
2023/10/28 08:08:47;;;;;;;10.10;3.20;;;13.30;90.20;;;;;;5014695;28;20408;-74
2023/10/28 08:11:13;;;;;;;12.80;6.47;;;13.30;89.80;;;;;;5017078;28;20470;-76
2023/10/28 08:13:40;;;;;;;9.95;2.88;;;13.50;89.60;;;;;;5016818;28;20041;-76
2023/10/28 08:16:09;;;;;;;10.52;3.65;;;13.40;89.20;;;;;;5018962;28;20041;-75
2023/10/28 08:18:35;;;;;;;9.73;2.40;;;13.50;89.00;;;;;;5013998;28;20095;-75
2023/10/28 08:21:01;;;;;;;9.02;2.63;;;13.60;88.80;;;;;;5014480;28;20399;-75
2023/10/28 08:23:29;;;;;;;11.25;3.28;;;13.70;88.70;;;;;;5017420;28;20498;-75
2023/10/28 08:25:57;;;;;;;8.50;3.53;;;13.80;88.30;;;;;;5018793;28;20102;-76
2023/10/28 08:28:22;;;;;;;11.05;2.65;;;14.00;88.00;;;;;;5015523;28;20659;-76
2023/10/28 08:30:48;;;;;;;8.95;2.20;;;14.10;87.70;;;;;;5018550;28;20041;-76
2023/10/28 08:33:14;;;;;;;10.73;2.55;;;14.10;87.00;;;;;;5015189;28;20044;-76
2023/10/28 08:35:39;;;;;;;9.35;3.05;;;14.00;87.30;;;;;;5016577;28;20088;-76
2023/10/28 08:38:05;;;;;;;10.23;3.13;;;14.00;86.80;;;;;;5017898;28;20060;-77
2023/10/28 08:40:34;;;;;;;10.07;3.35;;;14.00;87.20;;;;;;5018144;28;21155;-76
2023/10/28 08:43:00;;;;;;;11.75;3.40;;;13.80;87.40;;;;;;5007958;28;20037;-76
2023/10/28 08:45:27;;;;;;;8.95;3.08;;;13.80;87.10;;;;;;5016126;28;20034;-77
2023/10/28 08:47:53;;;;;;;9.55;3.00;;;13.70;87.40;;;;;;5019367;28;20037;-77
2023/10/28 08:50:24;;;;;;;11.23;3.33;;;13.70;87.90;;;;;;5011863;28;20092;-76
2023/10/28 08:52:55;;;;;;;9.15;2.70;;;13.80;87.80;;;;;;5017691;28;20026;-75
2023/10/28 08:55:23;;;;;;;8.30;2.38;;;13.80;87.40;;;;;;5017344;28;20033;-75
2023/10/28 08:57:49;;;;;;;8.98;2.92;;;13.80;87.40;;;;;;5019173;28;20257;-75
2023/10/28 09:00:16;;;;;;;11.55;2.72;;;14.00;87.40;;;;;;5015166;28;20053;-75
2023/10/28 09:02:45;;;;;;;13.27;2.90;;;14.10;86.70;;;;;;5018298;28;20076;-76
2023/10/28 09:05:12;;;;;;;10.05;4.28;;;14.20;86.10;;;;;;5017888;28;20029;-73
2023/10/28 09:07:38;;;;;;;12.10;5.10;;;14.40;85.80;;;;;;5022011;28;20349;-72
2023/10/28 09:10:04;;;;;;;13.20;6.07;;;14.40;85.90;;;;;;5024027;28;20033;-77
2023/10/28 09:12:34;;;;;;;12.20;4.07;;;14.40;85.30;;;;;;5036989;28;20037;-74
2023/10/28 09:14:59;;;;;;;10.63;4.15;;;14.50;85.10;;;;;;5021264;28;20087;-75
2023/10/28 09:17:25;;;;;;;12.32;4.32;;;14.40;85.80;;;;;;5018841;28;20033;-75
2023/10/28 09:19:51;;;;;;;14.73;4.60;;;14.60;86.00;;;;;;5025759;28;20510;-74
2023/10/28 09:22:17;;;;;;;9.77;2.90;;;14.60;84.90;;;;;;5018655;28;20030;-73
2023/10/28 09:24:47;;;;;;;11.05;2.90;;;14.80;85.10;;;;;;5022716;28;20128;-75
2023/10/28 09:27:13;;;;;;;24.65;12.88;;;14.80;84.10;;;;;;5015820;28;20046;-74
2023/10/28 09:29:41;;;;;;;14.15;5.55;;;14.70;84.20;;;;;;5023514;28;20048;-74
2023/10/28 09:32:09;;;;;;;15.20;3.90;;;14.90;84.40;;;;;;5021342;28;20046;-73
2023/10/28 09:34:38;;;;;;;14.40;3.60;;;14.90;83.60;;;;;;5022834;28;20367;-75
2023/10/28 09:37:07;;;;;;;11.93;3.83;;;14.90;83.70;;;;;;5023269;28;20116;-74
2023/10/28 09:39:35;;;;;;;14.63;4.00;;;15.00;83.90;;;;;;5020748;28;20036;-74
2023/10/28 09:42:02;;;;;;;10.57;3.40;;;14.90;83.80;;;;;;5018554;28;20048;-74
2023/10/28 09:44:28;;;;;;;13.70;5.85;;;14.70;84.10;;;;;;5019280;28;20017;-74
2023/10/28 09:47:07;;;;;;;15.30;5.53;;;14.60;84.60;;;;;;5023409;28;20029;-74
2023/10/28 09:49:34;;;;;;;14.80;6.20;;;14.50;84.80;;;;;;5021386;28;20104;-75
2023/10/28 09:52:05;;;;;;;17.20;4.97;;;14.60;85.10;;;;;;5018357;28;20108;-75
2023/10/28 09:54:35;;;;;;;15.65;4.05;;;14.70;85.10;;;;;;5017243;28;20025;-75
2023/10/28 09:57:02;;;;;;;15.32;4.43;;;14.70;85.00;;;;;;5020065;28;20045;-73
2023/10/28 09:59:34;;;;;;;15.85;3.88;;;14.90;84.90;;;;;;5021307;28;20360;-75
2023/10/28 10:02:01;;;;;;;13.30;3.78;;;15.00;83.90;;;;;;5020324;28;20401;-74
2023/10/28 10:04:45;;;;;;;12.38;4.03;;;15.00;83.80;;;;;;5018888;28;20079;-74
2023/10/28 10:07:13;;;;;;;16.20;4.32;;;15.10;84.00;;;;;;5020210;28;20041;-74
2023/10/28 10:09:48;;;;;;;15.68;3.65;;;15.30;83.40;;;;;;5019538;28;20333;-74
2023/10/28 10:12:14;;;;;;;14.88;4.03;;;15.30;82.90;;;;;;5013543;28;20044;-74
2023/10/28 10:14:47;;;;;;;12.85;4.32;;;15.40;83.10;;;;;;5019504;28;20588;-74
2023/10/28 10:17:25;;;;;;;18.35;5.68;;;15.40;83.20;;;;;;5017002;28;20033;-74
2023/10/28 10:19:52;;;;;;;15.93;4.20;;;15.40;82.60;;;;;;5013485;28;20029;-74
2023/10/28 10:22:29;;;;;;;13.50;2.92;;;15.50;82.60;;;;;;5016516;28;20097;-74
2023/10/28 10:24:55;;;;;;;16.55;3.70;;;15.40;82.30;;;;;;5018513;28;20026;-74
2023/10/28 10:27:42;;;;;;;14.18;3.80;;;15.10;82.90;;;;;;5029636;28;20407;-74
2023/10/28 10:30:09;;;;;;;13.88;3.47;;;15.00;83.60;;;;;;5016555;28;20048;-74
2023/10/28 10:32:50;;;;;;;14.63;3.72;;;15.00;83.50;;;;;;5016297;28;20034;-74
2023/10/28 10:35:33;;;;;;;17.27;3.33;;;15.00;83.70;;;;;;5021939;28;20029;-78
2023/10/28 10:38:04;;;;;;;16.67;4.75;;;15.00;83.60;;;;;;5018671;28;20029;-75
2023/10/28 10:40:32;;;;;;;16.00;4.20;;;15.00;84.00;;;;;;5015210;28;20042;-75
2023/10/28 10:43:08;;;;;;;16.02;4.75;;;15.00;83.60;;;;;;5023177;28;20085;-74
2023/10/28 10:45:35;;;;;;;18.67;3.83;;;15.10;84.70;;;;;;5019046;28;20099;-75
2023/10/28 10:48:08;;;;;;;13.40;3.28;;;15.50;84.30;;;;;;5018161;28;20034;-74
2023/10/28 10:50:37;;;;;;;14.48;3.72;;;15.50;83.00;;;;;;5013412;28;20036;-75
2023/10/28 10:53:03;;;;;;;14.00;4.07;;;15.40;82.60;;;;;;5015497;28;20038;-74
2023/10/28 10:55:30;;;;;;;14.35;3.53;;;15.60;83.10;;;;;;5022591;28;20033;-74
2023/10/28 10:57:56;;;;;;;13.23;6.35;;;15.80;82.80;;;;;;5017190;28;20073;-74
2023/10/28 11:00:22;;;;;;;17.63;4.47;;;15.70;82.20;;;;;;5014804;28;20463;-75
2023/10/28 11:02:49;;;;;;;15.45;3.50;;;15.70;82.10;;;;;;5031864;28;20036;-73
2023/10/28 11:05:17;;;;;;;15.77;4.05;;;15.80;82.20;;;;;;5022867;28;20432;-75
2023/10/28 11:07:43;;;;;;;16.25;3.50;;;15.80;81.90;;;;;;5020839;28;20050;-73
2023/10/28 11:10:09;;;;;;;16.17;4.13;;;15.60;82.10;;;;;;5020992;28;20030;-74
2023/10/28 11:12:36;;;;;;;14.68;3.88;;;15.70;82.60;;;;;;5018887;28;20494;-74
2023/10/28 11:15:03;;;;;;;14.90;3.85;;;15.80;82.70;;;;;;5034479;28;20045;-74
2023/10/28 11:17:29;;;;;;;18.08;3.50;;;15.80;82.90;;;;;;5019330;28;20026;-75
2023/10/28 11:19:56;;;;;;;14.43;3.63;;;15.80;81.90;;;;;;5016683;28;20064;-75
2023/10/28 11:22:23;;;;;;;18.35;4.03;;;15.80;82.00;;;;;;5027238;28;20038;-75
2023/10/28 11:24:59;;;;;;;17.23;3.50;;;15.80;82.20;;;;;;5025274;28;20036;-76
2023/10/28 11:27:26;;;;;;;18.02;4.15;;;15.70;82.40;;;;;;5026035;28;20440;-74
2023/10/28 11:29:56;;;;;;;19.48;4.40;;;15.70;82.50;;;;;;5023118;28;20038;-75
2023/10/28 11:32:23;;;;;;;13.82;3.83;;;15.70;82.40;;;;;;5024139;28;20045;-74
2023/10/28 11:34:49;;;;;;;16.92;4.07;;;15.80;82.50;;;;;;5022368;28;20329;-74
2023/10/28 11:37:15;;;;;;;18.75;4.80;;;15.90;82.10;;;;;;5021145;28;20033;-75
2023/10/28 11:39:44;;;;;;;23.90;6.43;;;16.10;81.80;;;;;;5016994;28;20018;-73
2023/10/28 11:42:16;;;;;;;22.92;6.88;;;16.00;81.40;;;;;;5011879;28;20045;-74
2023/10/28 11:44:50;;;;;;;21.00;6.45;;;16.10;82.00;;;;;;5019032;28;20861;-74
2023/10/28 11:47:17;;;;;;;21.63;5.68;;;16.40;80.70;;;;;;5015696;28;20128;-74
2023/10/28 11:49:43;;;;;;;29.67;11.68;;;16.20;80.30;;;;;;5011779;28;20124;-74
2023/10/28 11:52:11;;;;;;;17.17;4.97;;;16.20;80.70;;;;;;5011082;28;20494;-73
2023/10/28 11:54:37;;;;;;;24.63;9.88;;;16.30;80.10;;;;;;5016243;28;20174;-73
2023/10/28 11:57:03;;;;;;;20.80;7.25;;;16.50;80.70;;;;;;5012884;28;20341;-73
2023/10/28 11:59:29;;;;;;;20.50;5.63;;;16.50;80.70;;;;;;5015989;28;20022;-73
2023/10/28 12:01:55;;;;;;;18.63;5.03;;;16.80;80.20;;;;;;5013238;28;20049;-74
2023/10/28 12:04:21;;;;;;;15.60;4.43;;;16.80;79.00;;;;;;5019129;28;20049;-75
2023/10/28 12:06:47;;;;;;;17.00;5.20;;;16.80;78.40;;;;;;5010471;28;20041;-74
2023/10/28 12:09:14;;;;;;;18.45;4.60;;;16.70;79.20;;;;;;5016219;28;20100;-74
2023/10/28 12:11:40;;;;;;;17.38;4.78;;;16.60;78.90;;;;;;5013559;28;20098;-73
2023/10/28 12:14:07;;;;;;;16.10;3.75;;;16.70;79.10;;;;;;5016613;28;20029;-74
2023/10/28 12:16:35;;;;;;;15.45;4.22;;;17.00;78.70;;;;;;5015216;28;21934;-73
2023/10/28 12:19:01;;;;;;;19.23;5.57;;;17.00;78.50;;;;;;5012210;28;20033;-73
2023/10/28 12:21:28;;;;;;;18.92;5.07;;;17.00;78.80;;;;;;5016685;28;20045;-73
2023/10/28 12:23:54;;;;;;;18.77;4.47;;;17.10;78.90;;;;;;5014940;28;20103;-74
2023/10/28 12:26:20;;;;;;;19.95;5.10;;;17.10;78.50;;;;;;5008754;28;20057;-73
2023/10/28 12:28:49;;;;;;;20.50;5.20;;;17.10;77.70;;;;;;5010027;28;20060;-74
2023/10/28 12:31:18;;;;;;;12.93;4.63;;;17.00;77.90;;;;;;5012349;28;20111;-74
2023/10/28 12:33:44;;;;;;;15.38;4.30;;;16.90;78.00;;;;;;5015001;28;20017;-74
2023/10/28 12:36:10;;;;;;;13.77;3.38;;;16.70;78.40;;;;;;5014663;28;20390;-74